createdAt,value
2018-10-16T00:00:30.699Z,11.67
2018-10-16T00:03:01.121Z,11.40
2018-10-16T00:05:30.705Z,10.20
2018-10-16T00:08:01.285Z,9.77
2018-10-16T00:10:36.287Z,10.17
2018-10-16T00:13:06.340Z,10.98
2018-10-16T00:15:36.055Z,10.80
2018-10-16T00:18:06.264Z,9.93
2018-10-16T00:20:35.930Z,10.80
2018-10-16T00:23:05.838Z,10.45
2018-10-16T00:25:35.415Z,11.20
2018-10-16T00:28:05.698Z,10.43
2018-10-16T00:30:35.329Z,12.67
2018-10-16T00:33:05.043Z,13.70
2018-10-16T00:35:34.706Z,13.93
2018-10-16T00:38:04.253Z,14.45
2018-10-16T00:40:33.906Z,10.80
2018-10-16T00:43:03.622Z,15.63
2018-10-16T00:45:33.339Z,12.03
2018-10-16T00:48:03.048Z,11.53
2018-10-16T00:50:32.877Z,13.63
2018-10-16T00:53:02.600Z,14.70
2018-10-16T00:55:32.238Z,16.40
2018-10-16T00:58:01.904Z,14.43
2018-10-16T01:00:31.551Z,12.10
2018-10-16T01:03:01.145Z,12.97
2018-10-16T01:05:30.778Z,12.23
2018-10-16T01:08:01.235Z,12.83
2018-10-16T01:10:30.871Z,12.10
2018-10-16T01:13:01.270Z,11.23
2018-10-16T01:15:30.818Z,12.80
2018-10-16T01:18:01.263Z,12.37
2018-10-16T01:20:31.292Z,14.70
2018-10-16T01:23:01.220Z,16.20
2018-10-16T01:25:30.828Z,16.47
2018-10-16T01:28:01.536Z,16.50
2018-10-16T01:30:31.203Z,15.30
2018-10-16T01:33:01.203Z,12.60
2018-10-16T01:35:30.848Z,12.57
2018-10-16T01:38:01.245Z,12.10
2018-10-16T01:40:30.690Z,13.03
2018-10-16T01:43:01.201Z,12.60
2018-10-16T01:45:30.764Z,11.53
2018-10-16T01:48:01.273Z,11.90
2018-10-16T01:50:30.962Z,13.23
2018-10-16T01:53:01.195Z,14.87
2018-10-16T01:55:30.846Z,16.87
2018-10-16T01:58:01.239Z,14.13
2018-10-16T02:00:30.798Z,14.67
2018-10-16T02:03:01.281Z,15.90
2018-10-16T02:05:30.904Z,13.53
2018-10-16T02:08:01.492Z,12.07
2018-10-16T02:10:31.143Z,11.57
2018-10-16T02:13:01.279Z,13.00
2018-10-16T02:15:30.904Z,14.33
2018-10-16T02:18:01.370Z,12.82
2018-10-16T02:20:31.083Z,13.53
2018-10-16T02:23:01.451Z,12.73
2018-10-16T02:25:31.132Z,12.30
2018-10-16T02:28:01.382Z,11.57
2018-10-16T02:30:31.002Z,12.70
2018-10-16T02:33:01.293Z,11.03
2018-10-16T02:35:30.921Z,11.47
2018-10-16T02:38:01.466Z,11.80
2018-10-16T02:40:30.968Z,12.20
2018-10-16T02:43:01.305Z,12.33
2018-10-16T02:45:30.921Z,12.00
2018-10-16T02:48:01.404Z,10.67
2018-10-16T02:50:30.936Z,10.93
2018-10-16T02:53:01.344Z,10.98
2018-10-16T02:55:30.815Z,12.13
2018-10-16T02:58:01.343Z,12.33
2018-10-16T03:00:30.954Z,12.10
2018-10-16T03:03:01.372Z,11.50
2018-10-16T03:05:31.102Z,11.87
2018-10-16T03:08:01.406Z,12.23
2018-10-16T03:10:30.975Z,10.43
2018-10-16T03:13:01.552Z,10.93
2018-10-16T03:15:33.085Z,11.83
2018-10-16T03:18:02.790Z,11.37
2018-10-16T03:20:32.648Z,11.57
2018-10-16T03:23:02.093Z,10.80
2018-10-16T03:25:31.598Z,10.67
2018-10-16T03:28:01.402Z,11.37
2018-10-16T03:30:31.143Z,11.20
2018-10-16T03:33:01.401Z,11.60
2018-10-16T03:35:31.086Z,10.50
2018-10-16T03:38:01.415Z,10.70
2018-10-16T03:40:31.151Z,10.30
2018-10-16T03:43:01.586Z,10.33
2018-10-16T03:45:31.197Z,11.33
2018-10-16T03:48:01.439Z,10.00
2018-10-16T03:50:30.864Z,11.03
2018-10-16T03:53:01.443Z,12.28
2018-10-16T03:55:30.977Z,12.63
2018-10-16T03:58:01.479Z,10.73
2018-10-16T04:00:30.983Z,9.60
2018-10-16T04:03:01.412Z,10.13
2018-10-16T04:05:30.906Z,9.93
2018-10-16T04:08:01.329Z,10.97
2018-10-16T04:10:30.895Z,10.00
2018-10-16T04:13:01.435Z,10.60
2018-10-16T04:15:31.192Z,10.50
2018-10-16T04:18:01.586Z,10.47
2018-10-16T04:20:31.389Z,11.10
2018-10-16T04:23:01.726Z,10.07
2018-10-16T04:25:31.472Z,10.13
2018-10-16T04:28:01.601Z,10.38
2018-10-16T04:30:31.350Z,9.57
2018-10-16T04:33:01.590Z,10.30
2018-10-16T04:35:31.280Z,10.43
2018-10-16T04:38:01.781Z,11.50
2018-10-16T04:40:31.491Z,9.87
2018-10-16T04:43:01.783Z,9.68
2018-10-16T04:45:32.632Z,9.77
2018-10-16T04:48:02.352Z,8.53
2018-10-16T04:50:32.062Z,9.87
2018-10-16T04:53:01.740Z,10.75
2018-10-16T04:55:31.397Z,9.33
2018-10-16T04:58:01.687Z,11.40
2018-10-16T05:00:31.291Z,12.30
2018-10-16T05:03:02.182Z,10.80
2018-10-16T05:05:31.747Z,10.50
2018-10-16T05:08:01.738Z,11.23
2018-10-16T05:10:31.388Z,11.93
2018-10-16T05:13:01.781Z,12.17
2018-10-16T05:15:33.164Z,10.23
2018-10-16T05:18:03.158Z,10.63
2018-10-16T05:20:32.774Z,9.60
2018-10-16T05:23:02.449Z,11.07
2018-10-16T05:25:32.282Z,12.43
2018-10-16T05:28:02.057Z,12.20
2018-10-16T05:30:31.776Z,11.17
2018-10-16T05:33:01.713Z,12.53
2018-10-16T05:35:31.554Z,12.30
2018-10-16T05:38:01.815Z,22.77
2018-10-16T05:40:31.575Z,10.33
2018-10-16T05:43:01.806Z,14.50
2018-10-16T05:45:33.635Z,12.80
2018-10-16T05:48:03.349Z,12.67
2018-10-16T05:50:33.066Z,10.10
2018-10-16T05:53:02.779Z,11.22
2018-10-16T05:55:32.334Z,9.53
2018-10-16T05:58:02.430Z,11.40
2018-10-16T06:00:42.545Z,12.20
2018-10-16T06:03:12.236Z,12.45
2018-10-16T06:05:41.984Z,14.03
2018-10-16T06:08:11.743Z,14.63
2018-10-16T06:10:41.584Z,13.17
2018-10-16T06:13:11.287Z,10.50
2018-10-16T06:15:40.949Z,12.93
2018-10-16T06:18:10.695Z,10.95
2018-10-16T06:20:40.387Z,12.17
2018-10-16T06:23:10.193Z,12.82
2018-10-16T06:25:39.854Z,12.30
2018-10-16T06:28:15.531Z,14.65
2018-10-16T06:30:45.162Z,14.47
2018-10-16T06:33:15.762Z,14.95
2018-10-16T06:35:45.559Z,14.50
2018-10-16T06:38:15.445Z,14.25
2018-10-16T06:40:45.208Z,14.67
2018-10-16T06:43:14.962Z,13.15
2018-10-16T06:45:44.807Z,12.57
2018-10-16T06:48:14.703Z,13.65
2018-10-16T06:50:44.465Z,12.67
2018-10-16T06:53:14.432Z,11.73
2018-10-16T06:55:44.123Z,10.93
2018-10-16T06:58:13.950Z,10.25
2018-10-16T07:00:43.605Z,10.27
2018-10-16T07:03:13.295Z,11.13
2018-10-16T07:05:43.040Z,10.10
2018-10-16T07:08:12.838Z,10.90
2018-10-16T07:10:42.612Z,10.70
2018-10-16T07:13:12.203Z,10.78
2018-10-16T07:15:41.918Z,10.20
2018-10-16T07:18:11.676Z,9.37
2018-10-16T07:20:41.595Z,8.70
2018-10-16T07:23:11.194Z,9.33
2018-10-16T07:25:40.760Z,9.27
2018-10-16T07:28:10.391Z,8.88
2018-10-16T07:30:40.363Z,8.50
2018-10-16T07:33:10.197Z,8.60
2018-10-16T07:35:39.975Z,8.87
2018-10-16T07:38:09.919Z,8.30
2018-10-16T07:40:39.545Z,8.07
2018-10-16T07:43:09.370Z,8.17
2018-10-16T07:45:39.246Z,8.20
2018-10-16T07:48:09.347Z,8.35
2018-10-16T07:50:39.187Z,7.92
2018-10-16T07:53:09.151Z,8.17
2018-10-16T07:55:38.914Z,8.58
2018-10-16T07:58:08.597Z,7.97
2018-10-16T08:00:38.475Z,8.40
2018-10-16T08:03:08.084Z,8.60
2018-10-16T08:05:37.446Z,8.40
2018-10-16T08:08:07.343Z,8.28
2018-10-16T08:10:37.013Z,8.13
2018-10-16T08:13:06.879Z,8.52
2018-10-16T08:15:36.877Z,8.50
2018-10-16T08:18:06.709Z,8.33
2018-10-16T08:20:36.568Z,8.18
2018-10-16T08:23:06.372Z,8.63
2018-10-16T08:25:36.129Z,9.20
2018-10-16T08:28:06.074Z,9.80
2018-10-16T08:30:36.047Z,9.10
2018-10-16T08:33:06.092Z,8.57
2018-10-16T08:35:35.913Z,9.93
2018-10-16T08:38:15.179Z,10.20
2018-10-16T08:40:44.995Z,10.20
2018-10-16T08:43:29.338Z,10.45
2018-10-16T08:46:13.230Z,11.15
2018-10-16T08:48:54.034Z,11.03
2018-10-16T08:51:32.016Z,11.00
2018-10-16T08:54:02.402Z,11.05
2018-10-16T08:56:32.593Z,11.22
2018-10-16T08:59:03.075Z,10.38
2018-10-16T09:01:32.965Z,11.08
2018-10-16T09:04:04.400Z,11.83
2018-10-16T09:06:34.928Z,11.20
2018-10-16T09:09:07.820Z,10.70
2018-10-16T09:11:37.696Z,10.78
2018-10-16T09:14:08.167Z,10.87
2018-10-16T09:16:38.199Z,10.10
2018-10-16T09:19:08.000Z,10.33
2018-10-16T09:21:38.044Z,10.55
2018-10-16T09:24:07.955Z,11.25
2018-10-16T09:26:37.872Z,10.55
2018-10-16T09:29:07.855Z,10.47
2018-10-16T09:31:37.593Z,12.00
2018-10-16T09:34:07.566Z,12.00
2018-10-16T09:36:37.297Z,10.70
2018-10-16T09:39:10.099Z,9.73
2018-10-16T09:41:39.985Z,10.40
2018-10-16T09:44:09.896Z,11.37
2018-10-16T09:46:39.894Z,12.93
2018-10-16T09:49:09.666Z,12.17
2018-10-16T09:51:39.529Z,11.07
2018-10-16T09:54:09.454Z,10.78
2018-10-16T09:56:39.229Z,11.23
2018-10-16T09:59:08.968Z,10.40
2018-10-16T10:01:45.801Z,10.75
2018-10-16T10:04:16.053Z,10.80
2018-10-16T10:06:45.832Z,11.68
2018-10-16T10:09:15.659Z,11.70
2018-10-16T10:11:45.404Z,12.33
2018-10-16T10:14:15.180Z,12.30
2018-10-16T10:16:44.967Z,11.95
2018-10-16T10:19:14.737Z,11.88
2018-10-16T10:21:44.467Z,11.73
2018-10-16T10:24:14.227Z,11.93
2018-10-16T10:26:44.191Z,12.28
2018-10-16T10:29:13.987Z,12.78
2018-10-16T10:31:43.782Z,13.50
2018-10-16T10:34:13.629Z,11.65
2018-10-16T10:36:43.484Z,13.38
2018-10-16T10:39:16.260Z,13.20
2018-10-16T10:41:45.906Z,13.28
2018-10-16T10:44:15.808Z,12.70
2018-10-16T10:46:45.525Z,12.90
2018-10-16T10:49:15.365Z,13.78
2018-10-16T10:51:45.384Z,15.20
2018-10-16T10:54:14.967Z,17.23
2018-10-16T10:56:44.969Z,14.27
2018-10-16T10:59:14.803Z,15.15
2018-10-16T11:01:44.643Z,15.13
2018-10-16T11:04:14.446Z,16.77
2018-10-16T11:06:44.256Z,16.80
2018-10-16T11:09:14.267Z,16.57
2018-10-16T11:11:48.361Z,17.10
2018-10-16T11:14:18.251Z,18.10
2018-10-16T11:16:48.326Z,17.53
2018-10-16T11:19:18.059Z,18.05
2018-10-16T11:21:48.070Z,16.97
2018-10-16T11:24:17.802Z,17.48
2018-10-16T11:26:47.691Z,18.00
2018-10-16T11:29:17.726Z,19.80
2018-10-16T11:31:47.500Z,19.97
2018-10-16T11:34:17.485Z,17.30
2018-10-16T11:36:47.511Z,17.80
2018-10-16T11:39:17.294Z,17.23
2018-10-16T11:41:47.110Z,18.07
2018-10-16T11:44:16.939Z,18.37
2018-10-16T11:46:46.810Z,16.00
2018-10-16T11:49:16.725Z,17.07
2018-10-16T11:51:46.578Z,18.05
2018-10-16T11:54:16.474Z,21.52
2018-10-16T11:56:46.120Z,22.15
2018-10-16T11:59:15.930Z,19.60
2018-10-16T12:01:45.731Z,18.40
2018-10-16T12:04:15.551Z,18.20
2018-10-16T12:06:45.389Z,16.70
2018-10-16T12:09:15.312Z,17.48
2018-10-16T12:11:45.525Z,18.50
2018-10-16T12:14:15.542Z,17.35
2018-10-16T12:16:50.409Z,16.12
2018-10-16T12:19:26.363Z,16.02
2018-10-16T12:21:56.316Z,14.10
2018-10-16T12:24:26.135Z,16.67
2018-10-16T12:26:56.148Z,17.10
2018-10-16T12:29:25.909Z,15.27
2018-10-16T12:31:55.853Z,15.72
2018-10-16T12:34:26.074Z,17.27
2018-10-16T12:36:55.888Z,16.30
2018-10-16T12:39:25.921Z,15.98
2018-10-16T12:41:55.915Z,17.52
2018-10-16T12:44:25.828Z,15.18
2018-10-16T12:46:55.742Z,16.73
2018-10-16T12:49:25.672Z,15.40
2018-10-16T12:51:55.499Z,16.67
2018-10-16T12:54:25.450Z,16.33
2018-10-16T12:56:55.250Z,15.10
2018-10-16T12:59:25.359Z,14.73
2018-10-16T13:01:55.339Z,14.20
2018-10-16T13:04:25.022Z,14.00
2018-10-16T13:06:54.870Z,13.35
2018-10-16T13:09:24.719Z,13.87
2018-10-16T13:11:54.630Z,13.68
2018-10-16T13:14:24.547Z,13.60
2018-10-16T13:16:54.324Z,14.55
2018-10-16T13:19:25.027Z,12.70
2018-10-16T13:21:54.922Z,11.53
2018-10-16T13:24:24.899Z,12.23
2018-10-16T13:26:54.956Z,12.10
2018-10-16T13:29:24.830Z,12.65
2018-10-16T13:31:54.538Z,13.47
2018-10-16T13:34:24.546Z,12.33
2018-10-16T13:36:54.527Z,12.77
2018-10-16T13:39:24.291Z,12.37
2018-10-16T13:41:54.089Z,11.90
2018-10-16T13:44:23.867Z,11.73
2018-10-16T13:46:53.711Z,11.53
2018-10-16T13:49:23.523Z,10.47
2018-10-16T13:51:53.391Z,10.23
2018-10-16T13:54:23.276Z,9.65
2018-10-16T13:56:53.022Z,10.10
2018-10-16T13:59:22.691Z,9.70
2018-10-16T14:01:52.431Z,10.55
2018-10-16T14:04:22.265Z,9.73
2018-10-16T14:06:52.100Z,9.55
2018-10-16T14:09:21.685Z,10.10
2018-10-16T14:11:51.497Z,8.80
2018-10-16T14:14:21.203Z,9.47
2018-10-16T14:16:51.001Z,10.20
2018-10-16T14:19:20.695Z,9.05
2018-10-16T14:21:50.501Z,9.50
2018-10-16T14:24:20.224Z,8.93
2018-10-16T14:26:49.965Z,9.53
2018-10-16T14:29:19.754Z,9.20
2018-10-16T14:31:49.517Z,9.10
2018-10-16T14:34:19.325Z,9.37
2018-10-16T14:36:49.672Z,9.63
2018-10-16T14:39:19.389Z,9.87
2018-10-16T14:41:49.016Z,8.75
2018-10-16T14:44:18.656Z,9.17
2018-10-16T14:46:48.367Z,9.23
2018-10-16T14:49:18.124Z,8.93
2018-10-16T14:51:47.921Z,9.23
2018-10-16T14:54:17.536Z,8.70
2018-10-16T14:56:47.258Z,8.37
2018-10-16T14:59:17.124Z,9.23
2018-10-16T15:01:46.956Z,10.37
2018-10-16T15:04:16.668Z,9.95
2018-10-16T15:06:46.568Z,9.70
2018-10-16T15:09:16.336Z,9.28
2018-10-16T15:11:46.056Z,9.23
2018-10-16T15:14:15.864Z,9.13
2018-10-16T15:16:45.744Z,9.57
2018-10-16T15:19:15.846Z,9.73
2018-10-16T15:21:45.608Z,9.50
2018-10-16T15:24:15.286Z,10.73
2018-10-16T15:26:45.025Z,9.50
2018-10-16T15:29:14.794Z,10.13
2018-10-16T15:31:44.455Z,9.50
2018-10-16T15:34:14.495Z,9.73
2018-10-16T15:36:44.230Z,9.07
2018-10-16T15:39:14.236Z,9.63
2018-10-16T15:41:43.838Z,10.20
2018-10-16T15:44:13.611Z,10.03
2018-10-16T15:46:44.024Z,10.40
2018-10-16T15:49:14.151Z,10.03
2018-10-16T15:51:43.723Z,10.17
2018-10-16T15:54:13.451Z,11.53
2018-10-16T15:56:43.223Z,10.70
2018-10-16T15:59:12.914Z,9.57
2018-10-16T16:01:43.156Z,11.37
2018-10-16T16:04:12.922Z,10.05
2018-10-16T16:06:44.058Z,10.60
2018-10-16T16:09:14.429Z,11.37
2018-10-16T16:11:44.328Z,10.37
2018-10-16T16:14:14.113Z,9.65
2018-10-16T16:16:43.800Z,10.73
2018-10-16T16:19:13.490Z,10.18
2018-10-16T16:21:43.295Z,10.53
2018-10-16T16:24:13.211Z,10.97
2018-10-16T16:26:42.964Z,11.27
2018-10-16T16:29:12.547Z,11.60
2018-10-16T16:31:42.490Z,11.53
2018-10-16T16:34:12.256Z,11.17
2018-10-16T16:36:42.023Z,10.37
2018-10-16T16:39:13.558Z,10.97
2018-10-16T16:41:43.471Z,11.57
2018-10-16T16:44:13.339Z,12.43
2018-10-16T16:46:43.092Z,12.45
2018-10-16T16:49:12.872Z,11.65
2018-10-16T16:51:42.585Z,12.17
2018-10-16T16:54:12.336Z,11.20
2018-10-16T16:56:42.202Z,12.00
2018-10-16T16:59:11.853Z,12.17
2018-10-16T17:01:41.363Z,11.10
2018-10-16T17:04:11.157Z,11.43
2018-10-16T17:06:40.884Z,11.33
2018-10-16T17:09:12.039Z,13.13
2018-10-16T17:11:41.845Z,13.90
2018-10-16T17:14:11.542Z,12.20
2018-10-16T17:16:41.344Z,10.57
2018-10-16T17:19:11.212Z,10.15
2018-10-16T17:21:41.228Z,9.40
2018-10-16T17:24:10.943Z,9.67
2018-10-16T17:26:40.889Z,10.87
2018-10-16T17:29:10.560Z,11.00
2018-10-16T17:31:40.219Z,11.37
2018-10-16T17:34:10.313Z,11.80
2018-10-16T17:36:39.939Z,10.60
2018-10-16T17:39:11.295Z,10.75
2018-10-16T17:41:41.339Z,9.97
2018-10-16T17:44:11.154Z,10.40
2018-10-16T17:46:40.750Z,9.73
2018-10-16T17:49:10.317Z,9.27
2018-10-16T17:51:40.020Z,9.43
2018-10-16T17:54:09.793Z,11.00
2018-10-16T17:56:39.555Z,13.40
2018-10-16T17:59:09.429Z,10.53
2018-10-16T18:01:39.318Z,11.93
2018-10-16T18:04:09.912Z,12.35
2018-10-16T18:06:39.758Z,11.17
2018-10-16T18:09:09.728Z,12.43
2018-10-16T18:11:39.516Z,10.80
2018-10-16T18:14:09.560Z,11.07
2018-10-16T18:16:39.267Z,10.87
2018-10-16T18:19:09.046Z,10.43
2018-10-16T18:21:38.932Z,11.20
2018-10-16T18:24:08.860Z,12.27
2018-10-16T18:26:38.684Z,10.20
2018-10-16T18:29:08.418Z,13.03
2018-10-16T18:31:38.172Z,12.47
2018-10-16T18:34:07.775Z,10.18
2018-10-16T18:36:37.482Z,10.93
2018-10-16T18:39:08.680Z,10.17
2018-10-16T18:41:38.914Z,10.37
2018-10-16T18:44:08.870Z,11.05
2018-10-16T18:46:39.130Z,10.17
2018-10-16T18:49:09.283Z,9.83
2018-10-16T18:51:39.535Z,12.07
2018-10-16T18:54:09.755Z,10.27
2018-10-16T18:56:40.348Z,12.57
2018-10-16T18:59:10.265Z,12.57
2018-10-16T19:01:40.533Z,12.17
2018-10-16T19:04:11.086Z,15.10
2018-10-16T19:06:40.929Z,12.10
2018-10-16T19:09:12.012Z,12.58
2018-10-16T19:11:43.124Z,11.07
2018-10-16T19:14:13.404Z,11.18
2018-10-16T19:16:43.039Z,12.00
2018-10-16T19:19:12.703Z,12.27
2018-10-16T19:21:42.384Z,11.97
2018-10-16T19:24:12.246Z,11.15
2018-10-16T19:26:42.104Z,19.67
2018-10-16T19:29:11.737Z,15.28
2018-10-16T19:31:41.776Z,18.20
2018-10-16T19:34:11.438Z,18.47
2018-10-16T19:36:41.217Z,19.63
2018-10-16T19:39:12.420Z,15.48
2018-10-16T19:41:42.586Z,14.40
2018-10-16T19:44:12.508Z,14.78
2018-10-16T19:46:42.603Z,13.53
2018-10-16T19:49:12.386Z,14.00
2018-10-16T19:51:42.428Z,16.23
2018-10-16T19:54:12.152Z,13.35
2018-10-16T19:56:41.715Z,15.50
2018-10-16T19:59:11.375Z,12.47
2018-10-16T20:01:41.127Z,17.00
2018-10-16T20:04:10.619Z,13.07
2018-10-16T20:06:40.074Z,12.67
2018-10-16T20:09:11.187Z,16.17
2018-10-16T20:11:40.746Z,17.97
2018-10-16T20:14:11.494Z,17.83
2018-10-16T20:16:41.202Z,13.03
2018-10-16T20:19:10.912Z,16.32
2018-10-16T20:21:40.574Z,15.67
2018-10-16T20:24:10.179Z,15.53
2018-10-16T20:26:41.254Z,17.33
2018-10-16T20:29:12.557Z,16.80
2018-10-16T20:31:42.343Z,16.50
2018-10-16T20:34:11.880Z,15.30
2018-10-16T20:36:41.450Z,17.48
2018-10-16T20:39:13.038Z,14.30
2018-10-16T20:41:42.694Z,13.20
2018-10-16T20:44:12.237Z,13.63
2018-10-16T20:46:41.894Z,12.90
2018-10-16T20:49:11.473Z,12.97
2018-10-16T20:51:41.388Z,13.10
2018-10-16T20:54:11.055Z,12.55
2018-10-16T20:56:40.826Z,11.77
2018-10-16T20:59:10.404Z,12.43
2018-10-16T21:01:39.950Z,16.30
2018-10-16T21:04:09.570Z,20.97
2018-10-16T21:06:39.609Z,18.20
2018-10-16T21:09:09.026Z,15.43
2018-10-16T21:11:38.610Z,15.10
2018-10-16T21:14:08.275Z,13.47
2018-10-16T21:16:37.789Z,13.60
2018-10-16T21:19:07.317Z,16.23
2018-10-16T21:21:36.880Z,14.53
2018-10-16T21:24:06.590Z,16.57
2018-10-16T21:26:36.119Z,14.57
2018-10-16T21:29:06.102Z,20.30
2018-10-16T21:31:35.725Z,15.37
2018-10-16T21:34:05.828Z,14.47
2018-10-16T21:36:35.424Z,15.10
2018-10-16T21:39:06.402Z,17.67
2018-10-16T21:41:35.939Z,21.60
2018-10-16T21:44:06.206Z,16.17
2018-10-16T21:46:35.759Z,16.37
2018-10-16T21:49:05.781Z,14.63
2018-10-16T21:51:35.444Z,13.77
2018-10-16T21:54:05.074Z,13.27
2018-10-16T21:56:34.838Z,13.57
2018-10-16T21:59:04.431Z,14.30
2018-10-16T22:01:39.288Z,15.73
2018-10-16T22:04:08.966Z,15.65
2018-10-16T22:06:40.071Z,13.67
2018-10-16T22:09:13.223Z,13.22
2018-10-16T22:11:43.158Z,16.77
2018-10-16T22:14:12.767Z,17.17
2018-10-16T22:16:42.477Z,13.22
2018-10-16T22:19:12.265Z,17.15
2018-10-16T22:21:41.722Z,15.77
2018-10-16T22:24:11.351Z,16.47
2018-10-16T22:26:40.853Z,16.63
2018-10-16T22:29:10.609Z,17.00
2018-10-16T22:31:40.172Z,14.90
2018-10-16T22:34:09.730Z,16.57
2018-10-16T22:36:39.318Z,16.30
2018-10-16T22:39:09.986Z,13.30
2018-10-16T22:41:39.934Z,13.73
2018-10-16T22:44:10.016Z,13.50
2018-10-16T22:46:39.760Z,14.90
2018-10-16T22:49:09.444Z,13.08
2018-10-16T22:51:39.083Z,13.43
2018-10-16T22:54:08.820Z,18.47
2018-10-16T22:56:38.425Z,14.50
2018-10-16T23:02:30.341Z,16.03
2018-10-16T23:05:00.401Z,13.63
2018-10-16T23:07:30.238Z,13.43
2018-10-16T23:09:59.843Z,13.07
2018-10-16T23:12:29.574Z,13.60
2018-10-16T23:14:59.150Z,14.10
2018-10-16T23:17:28.611Z,14.37
2018-10-16T23:19:58.102Z,14.33
2018-10-16T23:22:27.510Z,16.80
2018-10-16T23:24:56.938Z,15.63
2018-10-16T23:27:26.423Z,14.10
2018-10-16T23:29:56.035Z,14.73
2018-10-16T23:32:25.794Z,14.10
2018-10-16T23:34:55.465Z,14.07
2018-10-16T23:37:25.041Z,14.77
2018-10-16T23:39:54.654Z,14.53
2018-10-16T23:42:24.255Z,16.00
2018-10-16T23:44:53.918Z,13.73
2018-10-16T23:47:23.480Z,13.77
2018-10-16T23:49:53.087Z,13.50
2018-10-16T23:52:22.697Z,15.37
2018-10-16T23:54:52.427Z,17.23
2018-10-16T23:57:22.236Z,17.73
2018-10-16T23:59:51.905Z,19.97
